createdAt,value
2018-06-22T00:00:09.071Z,60.50
2018-06-22T00:00:42.891Z,60.50
2018-06-22T00:01:15.942Z,60.50
2018-06-22T00:01:49.742Z,60.50
2018-06-22T00:02:23.579Z,60.40
2018-06-22T00:02:56.779Z,60.40
2018-06-22T00:03:29.816Z,60.40
2018-06-22T00:04:02.857Z,60.70
2018-06-22T00:04:36.666Z,60.70
2018-06-22T00:05:10.451Z,60.80
2018-06-22T00:05:43.530Z,60.80
2018-06-22T00:06:16.575Z,60.80
2018-06-22T00:06:49.538Z,60.70
2018-06-22T00:07:22.563Z,60.70
2018-06-22T00:07:55.616Z,60.70
2018-06-22T00:08:28.644Z,60.60
2018-06-22T00:09:01.705Z,60.50
2018-06-22T00:09:34.740Z,60.60
2018-06-22T00:10:08.535Z,60.80
2018-06-22T00:10:41.552Z,60.80
2018-06-22T00:11:14.577Z,60.90
2018-06-22T00:11:48.363Z,60.70
2018-06-22T00:12:22.175Z,60.80
2018-06-22T00:12:55.209Z,60.70
2018-06-22T00:13:28.253Z,60.70
2018-06-22T00:14:01.289Z,60.70
2018-06-22T00:14:35.094Z,60.80
2018-06-22T00:15:08.891Z,60.80
2018-06-22T00:15:41.921Z,60.70
2018-06-22T00:16:14.955Z,60.80
2018-06-22T00:16:47.980Z,60.80
2018-06-22T00:17:21.023Z,60.80
2018-06-22T00:17:54.064Z,60.80
2018-06-22T00:18:27.089Z,60.90
2018-06-22T00:19:01.624Z,61.00
2018-06-22T00:19:35.415Z,61.00
2018-06-22T00:20:08.444Z,61.00
2018-06-22T00:20:41.469Z,61.10
2018-06-22T00:21:15.254Z,61.20
2018-06-22T00:21:49.051Z,61.20
2018-06-22T00:22:22.869Z,61.00
2018-06-22T00:22:55.898Z,61.00
2018-06-22T00:23:28.931Z,61.00
2018-06-22T00:24:01.965Z,60.90
2018-06-22T00:24:35.756Z,61.00
2018-06-22T00:25:09.782Z,61.00
2018-06-22T00:25:42.979Z,61.00
2018-06-22T00:26:16.005Z,61.20
2018-06-22T00:26:49.032Z,61.10
2018-06-22T00:27:22.065Z,61.10
2018-06-22T00:27:55.860Z,61.10
2018-06-22T00:28:29.673Z,61.30
2018-06-22T00:29:02.700Z,61.30
2018-06-22T00:29:35.748Z,61.10
2018-06-22T00:30:08.811Z,61.20
2018-06-22T00:30:41.848Z,61.10
2018-06-22T00:31:15.657Z,61.10
2018-06-22T00:31:48.667Z,61.10
2018-06-22T00:32:21.690Z,61.00
2018-06-22T00:32:55.492Z,61.10
2018-06-22T00:33:29.276Z,61.10
2018-06-22T00:34:03.071Z,61.00
2018-06-22T00:34:36.860Z,61.00
2018-06-22T00:35:10.664Z,61.00
2018-06-22T00:35:43.852Z,60.90
2018-06-22T00:36:16.882Z,61.00
2018-06-22T00:36:49.903Z,60.80
2018-06-22T00:37:22.930Z,60.80
2018-06-22T00:37:55.985Z,60.90
2018-06-22T00:38:29.009Z,61.10
2018-06-22T00:39:02.033Z,61.20
2018-06-22T00:39:35.055Z,61.30
2018-06-22T00:40:08.101Z,61.30
2018-06-22T00:40:41.245Z,61.40
2018-06-22T00:41:14.283Z,61.30
2018-06-22T00:41:47.308Z,61.30
2018-06-22T00:42:20.335Z,61.40
2018-06-22T00:42:53.379Z,61.40
2018-06-22T00:43:27.273Z,61.40
2018-06-22T00:44:00.305Z,61.40
2018-06-22T00:44:33.337Z,61.40
2018-06-22T00:45:07.132Z,61.50
2018-06-22T00:45:40.456Z,61.40
2018-06-22T00:46:13.491Z,61.50
2018-06-22T00:46:46.600Z,61.50
2018-06-22T00:47:19.631Z,61.50
2018-06-22T00:47:53.456Z,61.50
2018-06-22T00:48:26.480Z,61.50
2018-06-22T00:48:59.524Z,61.50
2018-06-22T00:49:32.559Z,61.50
2018-06-22T00:50:05.592Z,61.60
2018-06-22T00:50:39.391Z,61.50
2018-06-22T00:51:12.427Z,61.50
2018-06-22T00:51:45.452Z,61.50
2018-06-22T00:52:18.495Z,61.60
2018-06-22T00:52:51.536Z,61.70
2018-06-22T00:53:49.288Z,61.70
2018-06-22T00:54:22.303Z,61.80
2018-06-22T00:54:55.328Z,61.70
2018-06-22T00:55:28.362Z,61.70
2018-06-22T00:56:01.411Z,61.80
2018-06-22T00:56:34.453Z,61.90
2018-06-22T00:57:07.480Z,62.00
2018-06-22T00:57:40.534Z,62.00
2018-06-22T00:58:13.564Z,62.00
2018-06-22T00:58:46.609Z,62.00
2018-06-22T00:59:19.631Z,62.20
2018-06-22T00:59:52.656Z,62.20
2018-06-22T01:00:25.689Z,62.20
2018-06-22T01:00:58.711Z,62.20
2018-06-22T01:01:31.747Z,62.30
2018-06-22T01:02:04.771Z,62.30
2018-06-22T01:02:37.803Z,62.40
2018-06-22T01:03:10.857Z,62.40
2018-06-22T01:03:43.883Z,62.40
2018-06-22T01:04:16.926Z,62.30
2018-06-22T01:04:50.723Z,62.50
2018-06-22T01:05:23.744Z,62.50
2018-06-22T01:05:57.548Z,62.40
2018-06-22T01:06:31.340Z,62.50
2018-06-22T01:07:05.144Z,62.30
2018-06-22T01:07:38.176Z,62.30
2018-06-22T01:08:11.236Z,62.30
2018-06-22T01:08:44.236Z,62.40
2018-06-22T01:09:17.271Z,62.50
2018-06-22T01:09:50.308Z,62.50
2018-06-22T01:10:23.339Z,62.50
2018-06-22T01:10:56.367Z,62.60
2018-06-22T01:11:29.396Z,62.80
2018-06-22T01:12:02.536Z,62.80
2018-06-22T01:12:35.560Z,62.70
2018-06-22T01:13:08.616Z,62.70
2018-06-22T01:13:41.623Z,62.50
2018-06-22T01:14:15.419Z,62.60
2018-06-22T01:14:49.217Z,62.70
2018-06-22T01:15:23.017Z,62.70
2018-06-22T01:15:56.812Z,62.70
2018-06-22T01:16:29.843Z,62.70
2018-06-22T01:17:02.991Z,62.90
2018-06-22T01:17:36.007Z,62.80
2018-06-22T01:18:09.048Z,62.70
2018-06-22T01:18:42.420Z,62.80
2018-06-22T01:19:15.398Z,62.90
2018-06-22T01:19:48.435Z,62.90
2018-06-22T01:20:22.229Z,62.90
2018-06-22T01:20:55.259Z,62.90
2018-06-22T01:21:28.284Z,62.80
2018-06-22T01:22:02.932Z,63.10
2018-06-22T01:22:36.740Z,63.00
2018-06-22T01:23:09.789Z,63.00
2018-06-22T01:23:42.820Z,63.00
2018-06-22T01:24:15.927Z,63.20
2018-06-22T01:24:48.956Z,63.10
2018-06-22T01:25:22.011Z,63.20
2018-06-22T01:25:55.028Z,63.20
2018-06-22T01:26:28.839Z,63.10
2018-06-22T01:27:01.877Z,63.10
2018-06-22T01:27:34.924Z,63.20
2018-06-22T01:28:07.981Z,63.10
2018-06-22T01:28:41.017Z,63.10
2018-06-22T01:29:14.040Z,63.00
2018-06-22T01:29:47.084Z,63.10
2018-06-22T01:30:20.106Z,63.00
2018-06-22T01:30:53.156Z,63.00
2018-06-22T01:31:26.204Z,63.10
2018-06-22T01:31:59.246Z,63.10
2018-06-22T01:32:33.047Z,63.30
2018-06-22T01:33:06.088Z,63.20
2018-06-22T01:33:39.123Z,63.30
2018-06-22T01:34:12.148Z,63.20
2018-06-22T01:34:45.189Z,63.20
2018-06-22T01:35:18.232Z,63.20
2018-06-22T01:35:52.035Z,63.40
2018-06-22T01:36:25.054Z,63.40
2018-06-22T01:36:58.080Z,63.40
2018-06-22T01:37:31.123Z,63.40
2018-06-22T01:38:04.172Z,63.40
2018-06-22T01:38:37.233Z,63.30
2018-06-22T01:39:10.272Z,63.30
2018-06-22T01:39:44.071Z,63.30
2018-06-22T01:40:17.277Z,63.30
2018-06-22T01:40:50.319Z,63.30
2018-06-22T01:41:23.351Z,63.40
2018-06-22T01:41:56.380Z,63.30
2018-06-22T01:42:29.424Z,63.20
2018-06-22T01:43:02.553Z,63.20
2018-06-22T01:43:35.607Z,63.20
2018-06-22T01:44:08.647Z,63.30
2018-06-22T01:44:41.676Z,63.20
2018-06-22T01:45:14.711Z,63.20
2018-06-22T01:45:48.496Z,63.40
2018-06-22T01:46:21.528Z,63.40
2018-06-22T01:46:54.563Z,63.50
2018-06-22T01:47:28.576Z,63.60
2018-06-22T01:48:01.870Z,63.60
2018-06-22T01:48:34.910Z,63.60
2018-06-22T01:49:08.716Z,63.70
2018-06-22T01:49:41.751Z,63.70
2018-06-22T01:50:14.797Z,63.60
2018-06-22T01:50:47.840Z,63.70
2018-06-22T01:51:20.867Z,63.90
2018-06-22T01:51:53.891Z,63.70
2018-06-22T01:52:26.920Z,63.50
2018-06-22T01:52:59.949Z,63.60
2018-06-22T01:53:33.020Z,63.50
2018-06-22T01:54:06.060Z,63.50
2018-06-22T01:54:39.866Z,63.50
2018-06-22T01:55:13.650Z,63.50
2018-06-22T01:55:47.444Z,63.60
2018-06-22T01:56:21.243Z,63.60
2018-06-22T01:56:55.048Z,63.50
2018-06-22T01:57:28.068Z,63.50
2018-06-22T01:58:01.124Z,63.50
2018-06-22T01:58:34.417Z,63.70
2018-06-22T01:59:07.440Z,63.60
2018-06-22T01:59:40.485Z,63.70
2018-06-22T02:00:13.512Z,63.60
2018-06-22T02:00:46.552Z,63.70
2018-06-22T02:01:20.355Z,63.90
2018-06-22T02:01:53.407Z,63.80
2018-06-22T02:02:26.438Z,63.80
2018-06-22T02:02:59.460Z,63.60
2018-06-22T02:03:32.536Z,63.60
2018-06-22T02:04:06.322Z,63.70
2018-06-22T02:04:39.356Z,63.70
2018-06-22T02:05:12.380Z,63.70
2018-06-22T02:05:45.429Z,63.90
2018-06-22T02:06:18.465Z,63.90
2018-06-22T02:06:51.493Z,63.60
2018-06-22T02:07:24.533Z,63.60
2018-06-22T02:07:57.570Z,63.60
2018-06-22T02:08:31.343Z,64.10
2018-06-22T02:09:05.168Z,63.90
2018-06-22T02:09:38.193Z,63.90
2018-06-22T02:10:11.262Z,63.90
2018-06-22T02:10:44.308Z,63.90
2018-06-22T02:11:17.350Z,63.90
2018-06-22T02:11:51.147Z,63.90
2018-06-22T02:12:24.262Z,63.90
2018-06-22T02:12:57.276Z,63.90
2018-06-22T02:13:30.312Z,63.90
2018-06-22T02:14:03.368Z,64.00
2018-06-22T02:14:36.543Z,63.90
2018-06-22T02:15:09.575Z,64.00
2018-06-22T02:15:42.692Z,64.10
2018-06-22T02:16:15.723Z,64.20
2018-06-22T02:16:48.754Z,64.20
2018-06-22T02:17:21.790Z,64.20
2018-06-22T02:17:55.584Z,64.10
2018-06-22T02:18:29.407Z,64.10
2018-06-22T02:19:02.424Z,64.10
2018-06-22T02:19:35.452Z,64.10
2018-06-22T02:20:08.491Z,64.10
2018-06-22T02:20:42.280Z,64.00
2018-06-22T02:21:16.076Z,64.00
2018-06-22T02:21:49.875Z,64.00
2018-06-22T02:22:23.669Z,64.00
2018-06-22T02:22:57.480Z,64.00
2018-06-22T02:23:30.536Z,64.00
2018-06-22T02:24:03.596Z,64.10
2018-06-22T02:24:37.391Z,64.00
2018-06-22T02:25:11.183Z,64.00
2018-06-22T02:25:44.207Z,64.00
2018-06-22T02:26:17.234Z,63.90
2018-06-22T02:26:50.266Z,64.10
2018-06-22T02:27:23.296Z,64.10
2018-06-22T02:27:57.085Z,64.00
2018-06-22T02:28:30.887Z,64.00
2018-06-22T02:29:03.910Z,64.00
2018-06-22T02:29:36.936Z,64.00
2018-06-22T02:30:09.963Z,64.10
2018-06-22T02:30:42.997Z,64.10
2018-06-22T02:31:16.256Z,64.10
2018-06-22T02:31:50.061Z,64.30
2018-06-22T02:32:23.076Z,64.30
2018-06-22T02:32:56.868Z,64.30
2018-06-22T02:33:30.133Z,64.30
2018-06-22T02:34:03.398Z,64.30
2018-06-22T02:34:36.420Z,64.20
2018-06-22T02:35:09.673Z,64.20
2018-06-22T02:35:42.701Z,64.40
2018-06-22T02:36:15.736Z,64.20
2018-06-22T02:36:48.764Z,64.10
2018-06-22T02:37:21.795Z,64.10
2018-06-22T02:37:54.825Z,64.20
2018-06-22T02:38:27.870Z,64.30
2018-06-22T02:39:01.689Z,64.30
2018-06-22T02:39:34.729Z,64.20
2018-06-22T02:40:07.758Z,64.20
2018-06-22T02:40:40.776Z,64.20
2018-06-22T02:41:14.567Z,65.40
2018-06-22T02:41:47.605Z,64.30
2018-06-22T02:42:20.641Z,64.20
2018-06-22T02:42:53.668Z,64.20
2018-06-22T02:43:26.696Z,64.30
2018-06-22T02:43:59.748Z,64.30
2018-06-22T02:44:33.553Z,65.10
2018-06-22T02:45:06.588Z,64.20
2018-06-22T02:45:39.631Z,64.30
2018-06-22T02:46:13.422Z,64.30
2018-06-22T02:46:46.458Z,64.30
2018-06-22T02:47:20.261Z,64.40
2018-06-22T02:47:53.288Z,64.40
2018-06-22T02:48:26.323Z,64.30
2018-06-22T02:48:59.357Z,64.40
2018-06-22T02:49:32.382Z,64.40
2018-06-22T02:50:05.405Z,64.30
2018-06-22T02:50:38.444Z,64.40
2018-06-22T02:51:11.467Z,64.40
2018-06-22T02:51:44.500Z,64.40
2018-06-22T02:52:17.543Z,64.50
2018-06-22T02:52:50.844Z,64.40
2018-06-22T02:53:23.880Z,64.30
2018-06-22T02:53:57.687Z,64.40
2018-06-22T02:54:30.723Z,64.40
2018-06-22T02:55:03.748Z,64.40
2018-06-22T02:55:36.779Z,64.40
2018-06-22T02:56:09.816Z,64.40
2018-06-22T02:56:42.847Z,64.40
2018-06-22T02:57:15.938Z,64.50
2018-06-22T02:57:48.977Z,64.60
2018-06-22T02:58:21.995Z,64.60
2018-06-22T02:58:55.100Z,64.50
2018-06-22T02:59:28.148Z,64.60
2018-06-22T03:00:01.169Z,64.60
2018-06-22T03:00:34.205Z,64.50
2018-06-22T03:01:07.237Z,64.60
2018-06-22T03:01:40.281Z,64.80
2018-06-22T03:02:14.077Z,64.60
2018-06-22T03:02:47.113Z,64.60
2018-06-22T03:03:20.160Z,64.40
2018-06-22T03:03:53.206Z,64.60
2018-06-22T03:04:26.235Z,64.60
2018-06-22T03:04:59.264Z,64.40
2018-06-22T03:05:32.297Z,64.50
2018-06-22T03:06:05.320Z,64.60
2018-06-22T03:06:39.117Z,64.70
2018-06-22T03:07:12.908Z,64.60
2018-06-22T03:07:46.719Z,64.80
2018-06-22T03:08:19.747Z,64.70
2018-06-22T03:08:52.784Z,64.80
2018-06-22T03:09:25.859Z,64.80
2018-06-22T03:09:58.895Z,64.80
2018-06-22T03:10:32.697Z,64.90
2018-06-22T03:11:05.720Z,64.90
2018-06-22T03:11:38.779Z,64.90
2018-06-22T03:12:11.809Z,64.80
2018-06-22T03:12:45.612Z,65.00
2018-06-22T03:13:19.650Z,65.10
2018-06-22T03:13:52.688Z,65.10
2018-06-22T03:14:26.479Z,65.10
2018-06-22T03:15:00.286Z,65.00
2018-06-22T03:15:33.315Z,65.00
2018-06-22T03:16:06.372Z,65.10
2018-06-22T03:16:39.418Z,65.20
2018-06-22T03:17:13.216Z,65.40
2018-06-22T03:17:46.248Z,65.40
2018-06-22T03:18:19.275Z,65.30
2018-06-22T03:18:52.320Z,65.30
2018-06-22T03:19:25.584Z,65.50
2018-06-22T03:19:59.399Z,65.40
2018-06-22T03:20:32.437Z,65.40
2018-06-22T03:21:05.472Z,65.40
2018-06-22T03:21:38.503Z,65.40
2018-06-22T03:22:11.527Z,65.20
2018-06-22T03:22:44.543Z,65.30
2018-06-22T03:23:18.362Z,65.30
2018-06-22T03:23:51.391Z,65.30
2018-06-22T03:24:24.627Z,65.30
2018-06-22T03:24:57.658Z,65.30
2018-06-22T03:25:30.704Z,65.40
2018-06-22T03:26:03.860Z,65.50
2018-06-22T03:26:36.893Z,65.50
2018-06-22T03:27:10.006Z,65.60
2018-06-22T03:27:43.030Z,65.50
2018-06-22T03:28:16.080Z,65.50
2018-06-22T03:28:49.136Z,65.40
2018-06-22T03:29:22.175Z,65.30
2018-06-22T03:29:55.207Z,65.20
2018-06-22T03:30:28.240Z,65.30
2018-06-22T03:31:01.281Z,65.50
2018-06-22T03:31:34.393Z,65.40
2018-06-22T03:32:07.484Z,65.60
2018-06-22T03:32:40.479Z,65.60
2018-06-22T03:33:13.501Z,65.70
2018-06-22T03:33:47.303Z,65.60
2018-06-22T03:34:20.343Z,65.60
2018-06-22T03:34:53.375Z,65.60
2018-06-22T03:35:26.405Z,65.70
2018-06-22T03:36:00.201Z,65.70
2018-06-22T03:36:33.996Z,65.70
2018-06-22T03:37:07.799Z,65.60
2018-06-22T03:37:41.584Z,65.70
2018-06-22T03:38:15.385Z,65.70
2018-06-22T03:38:48.440Z,65.60
2018-06-22T03:39:21.468Z,65.70
2018-06-22T03:39:55.264Z,66.00
2018-06-22T03:40:28.292Z,65.90
2018-06-22T03:41:02.110Z,65.70
2018-06-22T03:41:35.152Z,65.70
2018-06-22T03:42:08.947Z,65.60
2018-06-22T03:42:41.968Z,65.60
2018-06-22T03:43:15.046Z,65.70
2018-06-22T03:43:48.069Z,65.80
2018-06-22T03:44:21.100Z,66.00
2018-06-22T03:44:54.887Z,65.90
2018-06-22T03:45:27.912Z,65.90
2018-06-22T03:46:01.721Z,66.00
2018-06-22T03:46:35.523Z,65.90
2018-06-22T03:47:08.558Z,65.90
2018-06-22T03:47:41.590Z,65.90
2018-06-22T03:48:14.620Z,65.80
2018-06-22T03:48:48.423Z,65.70
2018-06-22T03:49:22.224Z,65.70
2018-06-22T03:49:55.265Z,65.60
2018-06-22T03:50:28.297Z,65.60
2018-06-22T03:51:01.332Z,65.70
2018-06-22T03:51:35.135Z,65.70
2018-06-22T03:52:08.919Z,65.70
2018-06-22T03:52:42.710Z,65.80
2018-06-22T03:53:16.513Z,66.70
2018-06-22T03:53:49.536Z,65.80
2018-06-22T03:54:22.593Z,65.80
2018-06-22T03:54:55.625Z,65.70
2018-06-22T03:55:29.419Z,65.60
2018-06-22T03:56:03.213Z,65.60
2018-06-22T03:56:37.011Z,65.50
2018-06-22T03:57:10.040Z,65.60
2018-06-22T03:57:43.065Z,65.60
2018-06-22T03:58:16.106Z,65.70
2018-06-22T03:58:49.142Z,65.80
2018-06-22T03:59:22.190Z,65.80
2018-06-22T03:59:55.984Z,66.60
2018-06-22T04:00:29.023Z,65.70
2018-06-22T04:01:02.060Z,65.60
2018-06-22T04:01:35.107Z,65.70
2018-06-22T04:02:08.123Z,65.40
2018-06-22T04:02:41.156Z,65.70
2018-06-22T04:03:14.953Z,65.90
2018-06-22T04:03:47.987Z,65.90
2018-06-22T04:04:21.032Z,65.90
2018-06-22T04:04:54.083Z,66.70
2018-06-22T04:05:27.112Z,65.80
2018-06-22T04:06:00.254Z,65.80
2018-06-22T04:06:33.284Z,65.70
2018-06-22T04:07:07.084Z,65.80
2018-06-22T04:07:40.128Z,65.80
2018-06-22T04:08:13.464Z,65.70
2018-06-22T04:08:46.489Z,66.60
2018-06-22T04:09:19.529Z,65.80
2018-06-22T04:09:52.563Z,66.00
2018-06-22T04:10:25.667Z,66.00
2018-06-22T04:10:58.697Z,65.90
2018-06-22T04:11:32.498Z,66.00
2018-06-22T04:12:05.537Z,66.00
2018-06-22T04:12:38.546Z,66.00
2018-06-22T04:13:12.334Z,66.10
2018-06-22T04:13:46.131Z,66.20
2018-06-22T04:14:19.961Z,66.10
2018-06-22T04:14:52.976Z,66.10
2018-06-22T04:15:26.009Z,66.20
2018-06-22T04:15:59.047Z,66.20
2018-06-22T04:16:32.850Z,66.10
2018-06-22T04:17:05.883Z,66.20
2018-06-22T04:17:38.925Z,66.20
2018-06-22T04:18:12.171Z,66.20
2018-06-22T04:18:45.960Z,66.20
2018-06-22T04:19:19.760Z,66.10
2018-06-22T04:19:53.572Z,66.20
2018-06-22T04:20:26.605Z,66.20
2018-06-22T04:20:59.631Z,66.00
2018-06-22T04:21:32.657Z,65.90
2018-06-22T04:22:06.448Z,66.10
2018-06-22T04:22:40.268Z,66.30
2018-06-22T04:23:13.303Z,66.10
2018-06-22T04:23:46.328Z,66.20
2018-06-22T04:24:19.416Z,66.30
2018-06-22T04:24:52.398Z,66.30
2018-06-22T04:25:25.432Z,66.40
2018-06-22T04:25:58.457Z,66.40
2018-06-22T04:26:31.480Z,66.40
2018-06-22T04:27:04.508Z,66.40
2018-06-22T04:27:37.543Z,66.30
2018-06-22T04:28:10.569Z,66.30
2018-06-22T04:28:43.600Z,66.30
2018-06-22T04:29:16.644Z,66.40
2018-06-22T04:29:49.696Z,66.30
2018-06-22T04:30:22.728Z,66.30
2018-06-22T04:30:55.752Z,67.20
2018-06-22T04:31:28.779Z,66.30
2018-06-22T04:32:01.817Z,66.40
2018-06-22T04:32:35.608Z,66.40
2018-06-22T04:33:09.412Z,66.30
2018-06-22T04:33:42.448Z,66.30
2018-06-22T04:34:15.486Z,66.40
2018-06-22T04:34:48.516Z,66.30
2018-06-22T04:35:22.316Z,66.50
2018-06-22T04:35:56.112Z,66.60
2018-06-22T04:36:29.917Z,66.50
2018-06-22T04:37:03.703Z,66.40
2018-06-22T04:37:37.504Z,66.20
2018-06-22T04:38:10.523Z,66.20
2018-06-22T04:38:43.604Z,66.30
2018-06-22T04:39:16.583Z,66.30
2018-06-22T04:39:50.388Z,66.40
2018-06-22T04:40:23.415Z,66.40
2018-06-22T04:40:56.446Z,66.20
2018-06-22T04:41:29.531Z,66.10
2018-06-22T04:42:03.278Z,66.10
2018-06-22T04:42:37.076Z,66.40
2018-06-22T04:43:10.104Z,66.40
2018-06-22T04:43:43.140Z,66.50
2018-06-22T04:44:16.170Z,66.60
2018-06-22T04:44:49.230Z,66.40
2018-06-22T04:45:22.261Z,66.50
2018-06-22T04:45:55.332Z,66.60
2018-06-22T04:46:28.355Z,66.60
2018-06-22T04:47:01.394Z,66.50
2018-06-22T04:47:34.458Z,66.50
2018-06-22T04:48:07.448Z,66.50
2018-06-22T04:48:41.264Z,66.90
2018-06-22T04:49:14.331Z,66.80
2018-06-22T04:49:47.314Z,66.80
2018-06-22T04:50:20.371Z,66.70
2018-06-22T04:50:54.180Z,66.70
2018-06-22T04:51:27.969Z,66.60
2018-06-22T04:52:01.544Z,66.70
2018-06-22T04:52:35.352Z,66.60
2018-06-22T04:53:08.395Z,66.40
2018-06-22T04:53:41.451Z,66.60
2018-06-22T04:54:15.235Z,67.00
2018-06-22T04:54:48.277Z,67.00
2018-06-22T04:55:21.313Z,67.10
2018-06-22T04:55:54.344Z,67.10
2018-06-22T04:56:27.373Z,66.80
2018-06-22T04:57:01.181Z,66.80
2018-06-22T04:57:34.196Z,67.70
2018-06-22T04:58:07.238Z,66.80
2018-06-22T04:58:40.260Z,66.60
2018-06-22T04:59:13.291Z,66.80
2018-06-22T04:59:47.098Z,66.70
2018-06-22T05:00:20.127Z,66.70
2018-06-22T05:00:53.156Z,66.60
2018-06-22T05:01:26.183Z,66.70
2018-06-22T05:01:59.971Z,67.00
2018-06-22T05:02:33.769Z,66.90
2018-06-22T05:03:07.559Z,66.80
2018-06-22T05:03:41.424Z,66.90
2018-06-22T05:04:15.142Z,67.00
2018-06-22T05:04:48.951Z,67.00
2018-06-22T05:05:22.004Z,67.00
2018-06-22T05:05:55.037Z,66.90
2018-06-22T05:06:28.052Z,67.00
2018-06-22T05:07:01.847Z,67.00
2018-06-22T05:07:35.652Z,67.40
2018-06-22T05:08:08.687Z,67.40
2018-06-22T05:08:41.728Z,67.40
2018-06-22T05:09:14.795Z,67.30
2018-06-22T05:09:48.565Z,67.80
2018-06-22T05:10:22.371Z,67.30
2018-06-22T05:10:55.402Z,67.20
2018-06-22T05:11:28.433Z,67.10
2018-06-22T05:12:01.479Z,67.20
2018-06-22T05:12:35.279Z,67.30
2018-06-22T05:13:09.075Z,67.30
2018-06-22T05:13:42.108Z,67.30
2018-06-22T05:14:15.147Z,67.20
2018-06-22T05:14:48.177Z,68.30
2018-06-22T05:15:21.983Z,67.60
2018-06-22T05:15:55.779Z,67.40
2018-06-22T05:16:28.825Z,67.40
2018-06-22T05:17:01.855Z,67.40
2018-06-22T05:17:34.883Z,67.50
2018-06-22T05:18:08.686Z,67.60
2018-06-22T05:18:42.486Z,67.70
2018-06-22T05:19:16.283Z,67.70
2018-06-22T05:19:49.312Z,67.70
2018-06-22T05:20:22.378Z,67.60
2018-06-22T05:20:55.632Z,67.40
2018-06-22T05:21:28.650Z,67.30
2018-06-22T05:22:01.684Z,67.30
2018-06-22T05:22:34.746Z,67.20
2018-06-22T05:23:08.500Z,67.20
2018-06-22T05:23:42.313Z,67.40
2018-06-22T05:24:16.118Z,67.40
2018-06-22T05:24:49.982Z,67.20
2018-06-22T05:25:22.956Z,67.20
2018-06-22T05:25:55.999Z,67.10
2018-06-22T05:26:29.029Z,67.10
2018-06-22T05:27:02.808Z,66.70
2018-06-22T05:27:36.599Z,66.90
2018-06-22T05:28:10.392Z,67.20
2018-06-22T05:28:44.196Z,67.10
2018-06-22T05:29:17.216Z,67.10
2018-06-22T05:29:50.239Z,66.90
2018-06-22T05:30:23.315Z,67.00
2018-06-22T05:30:56.325Z,67.10
2018-06-22T05:31:29.598Z,67.20
2018-06-22T05:32:02.630Z,67.30
2018-06-22T05:32:36.412Z,67.30
2018-06-22T05:33:09.452Z,67.30
2018-06-22T05:33:42.615Z,67.40
2018-06-22T05:34:15.654Z,67.20
2018-06-22T05:34:49.445Z,67.20
2018-06-22T05:35:22.480Z,67.20
2018-06-22T05:35:55.588Z,67.20
2018-06-22T05:36:28.710Z,67.20
2018-06-22T05:37:01.740Z,66.90
2018-06-22T05:37:35.528Z,66.70
2018-06-22T05:38:08.560Z,66.70
2018-06-22T05:38:41.583Z,66.90
2018-06-22T05:39:15.384Z,66.70
2018-06-22T05:39:49.171Z,66.70
2018-06-22T05:40:23.003Z,66.90
2018-06-22T05:40:56.032Z,66.80
2018-06-22T05:41:29.120Z,66.80
2018-06-22T05:42:02.708Z,67.30
2018-06-22T05:42:36.491Z,67.20
2018-06-22T05:43:10.288Z,67.30
2018-06-22T05:43:44.091Z,67.20
2018-06-22T05:44:17.111Z,67.20
2018-06-22T05:44:50.268Z,67.40
2018-06-22T05:45:23.324Z,67.00
2018-06-22T05:45:56.354Z,67.20
2018-06-22T05:46:29.380Z,67.20
2018-06-22T05:47:04.386Z,67.10
2018-06-22T05:47:37.445Z,67.10
2018-06-22T05:48:10.458Z,67.20
2018-06-22T05:48:43.469Z,67.10
2018-06-22T05:49:16.499Z,67.10
2018-06-22T05:49:49.534Z,67.10
2018-06-22T05:50:22.577Z,68.00
2018-06-22T05:50:56.165Z,67.10
2018-06-22T05:51:29.154Z,67.20
2018-06-22T05:52:02.928Z,67.20
2018-06-22T05:52:35.964Z,67.00
2018-06-22T05:53:09.038Z,67.30
2018-06-22T05:53:42.816Z,67.40
2018-06-22T05:54:16.615Z,67.00
2018-06-22T05:54:49.656Z,67.00
2018-06-22T05:55:22.694Z,66.80
2018-06-22T05:55:56.517Z,66.80
2018-06-22T05:56:29.739Z,66.80
2018-06-22T05:57:02.702Z,66.70
2018-06-22T05:57:36.424Z,66.40
2018-06-22T05:58:09.712Z,66.20
2018-06-22T05:58:42.949Z,66.20
2018-06-22T05:59:15.987Z,66.30
2018-06-22T05:59:49.004Z,67.20
2018-06-22T06:00:22.060Z,66.10
2018-06-22T06:00:55.087Z,66.10
2018-06-22T06:01:28.107Z,66.00
2018-06-22T06:02:01.147Z,65.80
2018-06-22T06:02:34.941Z,65.90
2018-06-22T06:03:08.731Z,66.60
2018-06-22T06:03:41.756Z,66.00
2018-06-22T06:04:15.543Z,65.90
2018-06-22T06:04:49.344Z,66.10
2018-06-22T06:05:23.162Z,65.50
2018-06-22T06:05:56.256Z,65.50
2018-06-22T06:06:29.343Z,65.80
2018-06-22T06:07:02.404Z,65.90
2018-06-22T06:07:35.432Z,65.90
2018-06-22T06:08:09.260Z,65.90
2018-06-22T06:08:42.281Z,65.80
2018-06-22T06:09:15.317Z,65.90
2018-06-22T06:09:48.338Z,65.60
2018-06-22T06:10:21.401Z,65.50
2018-06-22T06:10:54.428Z,65.60
2018-06-22T06:11:27.476Z,65.70
2018-06-22T06:12:01.280Z,66.00
2018-06-22T06:12:34.408Z,65.90
2018-06-22T06:13:07.344Z,65.80
2018-06-22T06:13:40.379Z,65.70
2018-06-22T06:14:13.406Z,66.00
2018-06-22T06:14:46.577Z,65.80
2018-06-22T06:15:19.601Z,65.40
2018-06-22T06:15:52.986Z,65.60
2018-06-22T06:16:26.012Z,65.70
2018-06-22T06:16:59.053Z,65.70
2018-06-22T06:17:32.839Z,66.00
2018-06-22T06:18:06.632Z,65.90
2018-06-22T06:18:39.657Z,65.90
2018-06-22T06:19:12.676Z,65.90
2018-06-22T06:19:45.701Z,65.90
2018-06-22T06:20:18.734Z,66.00
2018-06-22T06:20:52.548Z,66.30
2018-06-22T06:21:25.573Z,66.20
2018-06-22T06:21:58.607Z,66.10
2018-06-22T06:22:31.636Z,65.90
2018-06-22T06:23:05.427Z,65.80
2018-06-22T06:23:39.221Z,65.50
2018-06-22T06:24:13.008Z,65.80
2018-06-22T06:24:47.070Z,66.50
2018-06-22T06:25:20.084Z,65.60
2018-06-22T06:25:53.123Z,65.50
2018-06-22T06:26:26.140Z,65.70
2018-06-22T06:26:59.936Z,65.60
2018-06-22T06:27:32.958Z,65.60
2018-06-22T06:28:07.015Z,65.40
2018-06-22T06:28:40.804Z,65.10
2018-06-22T06:29:14.792Z,65.30
2018-06-22T06:29:48.583Z,65.50
2018-06-22T06:30:21.620Z,65.50
2018-06-22T06:30:54.663Z,65.40
2018-06-22T06:31:27.722Z,65.00
2018-06-22T06:32:01.009Z,65.00
2018-06-22T06:32:33.992Z,64.90
2018-06-22T06:33:07.020Z,65.00
2018-06-22T06:33:40.069Z,65.00
2018-06-22T06:34:13.071Z,64.80
2018-06-22T06:34:46.114Z,64.80
2018-06-22T06:35:19.135Z,64.90
2018-06-22T06:35:52.182Z,64.70
2018-06-22T06:36:25.228Z,64.70
2018-06-22T06:36:58.256Z,64.60
2018-06-22T06:37:31.295Z,64.60
2018-06-22T06:38:04.316Z,64.40
2018-06-22T06:38:37.341Z,64.60
2018-06-22T06:39:10.380Z,64.50
2018-06-22T06:39:44.167Z,64.30
2018-06-22T06:40:17.213Z,64.30
2018-06-22T06:40:50.247Z,64.40
2018-06-22T06:41:23.312Z,64.40
2018-06-22T06:41:56.394Z,64.10
2018-06-22T06:42:29.350Z,64.20
2018-06-22T06:43:02.368Z,64.10
2018-06-22T06:43:35.403Z,64.10
2018-06-22T06:44:08.440Z,64.30
2018-06-22T06:44:41.460Z,64.30
2018-06-22T06:45:14.483Z,64.30
2018-06-22T06:45:47.522Z,64.10
2018-06-22T06:46:20.585Z,64.20
2018-06-22T06:46:53.627Z,64.30
2018-06-22T06:47:26.656Z,64.40
2018-06-22T06:48:00.539Z,64.10
2018-06-22T06:48:33.583Z,63.40
2018-06-22T06:49:07.100Z,63.20
2018-06-22T06:49:40.231Z,63.80
2018-06-22T06:50:13.310Z,64.30
2018-06-22T06:50:46.355Z,64.40
2018-06-22T06:51:19.375Z,64.30
2018-06-22T06:51:52.420Z,64.10
2018-06-22T06:52:25.445Z,63.70
2018-06-22T06:52:58.472Z,62.70
2018-06-22T06:53:32.267Z,63.60
2018-06-22T06:54:05.317Z,63.60
2018-06-22T06:54:38.343Z,63.80
2018-06-22T06:55:11.379Z,63.20
2018-06-22T06:55:44.462Z,64.10
2018-06-22T06:56:17.511Z,63.90
2018-06-22T06:56:50.595Z,64.10
2018-06-22T06:57:23.575Z,63.80
2018-06-22T06:57:56.653Z,63.80
2018-06-22T06:58:29.700Z,64.00
2018-06-22T06:59:03.855Z,63.90
2018-06-22T06:59:36.872Z,63.90
2018-06-22T07:00:09.904Z,63.90
2018-06-22T07:00:42.931Z,63.40
2018-06-22T07:01:15.976Z,63.70
2018-06-22T07:01:49.201Z,64.60
2018-06-22T07:02:22.233Z,63.90
2018-06-22T07:02:55.295Z,64.00
2018-06-22T07:03:28.299Z,63.40
2018-06-22T07:04:02.289Z,63.90
2018-06-22T07:04:35.332Z,63.80
2018-06-22T07:05:09.137Z,63.40
2018-06-22T07:05:42.171Z,63.40
2018-06-22T07:06:16.062Z,63.50
2018-06-22T07:06:49.138Z,63.50
2018-06-22T07:07:22.212Z,63.40
2018-06-22T07:07:55.282Z,62.90
2018-06-22T07:08:28.338Z,63.30